TLSO2: Arkansas River, Tulsa, OK

                                SHEF ID:       TLSO2     Arkansas River at Tulsa, OK
STATION TYPE: Stream Gauge
Regulating: Stage = 15.00, Flow = 96489

PRECIP STAGE STAGE(2) RIV-FLOW WTR-TEMP DIS-OXY BAT-LOAD
in ft ft cfs F mg/l volt
Ccp-Rev Ccp-Rev Ccp-Rev Ccp-Rev Ccp-Rev Ccp-Rev Ccp-Rev
(America/Chicago)
04/29 00:00 0.00 4.70 ---- 6258 67.05 7.44 ----
04/29 01:00 0.00 4.70 ---- 6258 66.56 6.97 ----
04/29 02:00 0.00 4.69 ---- 6190 66.09 6.75 ----
04/29 03:00 0.00 4.69 ---- 6190 65.80 6.53 ----
04/29 04:00 0.00 4.69 ---- 6190 65.43 6.30 ----
04/29 05:00 0.00 4.70 ---- 6258 65.14 6.22 ----
04/29 06:00 0.00 4.69 ---- 6190 64.87 6.11 ----
04/29 07:00 0.00 4.69 ---- 6190 64.49 6.22 ----
04/29 08:00 0.00 4.67 ---- 6053 64.27 6.19 ----
04/29 09:00 0.00 4.64 ---- 5850 64.17 6.48 ----
04/29 10:00 0.00 4.68 ---- 6121 64.53 6.65 ----
04/29 11:00 0.00 4.70 ---- 6258 65.05 6.99 ----
04/29 12:00 0.00 4.68 ---- 6121 65.82 7.21 ----
04/29 13:00 0.00 4.66 ---- 5985 66.47 7.49 ----
04/29 14:00 0.00 4.62 ---- 5718 67.15 7.80 ----
04/29 15:00 0.00 4.56 ---- 5331 67.80 7.89 ----
04/29 16:00 0.00 4.55 ---- 5267 68.40 8.10 ----
04/29 17:00 0.00 4.53 ---- 5143 68.61 8.16 ----
04/29 18:00 0.00 4.53 ---- 5143 69.17 8.40 ----
04/29 19:00 0.00 4.57 ---- 5394 69.22 8.42 ----
04/29 20:00 0.00 4.68 ---- 6121 69.13 8.30 ----
04/29 21:00 0.00 4.65 ---- 5917 69.08 8.24 ----
04/29 22:00 0.00 4.68 ---- 6121 69.17 8.24 ----
04/29 23:00 0.00 4.68 ---- 6121 69.03 8.18 ----
Data processed at Thu 30Apr2026 04:48 GMT

NOTICE: If you are parsing this page

Please convert to using our Data API. Starting early 2026 we will be migrating to: https://water.usace.army.mil with modern pages rendered in JavaScript. When this migration completes you will no longer be able to scrape this page! CWMSDataAPI (CDA)

Timeseries IDs (TSIDs)

TSIDs used from left to right in the data table
TULA.Precip-Inc.Total.1Hour.1Hour.Ccp-Rev
TULA.Stage.Inst.1Hour.0.Ccp-Rev
TULA.Stage-Alt.Inst.1Hour.0.Ccp-Rev
TULA.Flow.Inst.1Hour.0.Ccp-Rev
TULA.Temp-Water.Inst.1Hour.0.Ccp-Rev
TULA.Conc-DO.Inst.1Hour.0.Ccp-Rev
TULA.Volt-Battery Load.Inst.1Hour.0.Ccp-Rev

                            

All information presented herein is the property of the government of the United States of America and may be revised or deleted at any time without prior notice. Dissemination of this information without the expressed written consent of the Public Affairs Office, Tulsa District U.S. Army Corps of Engineers is strictly prohibited. These data are gathered electronically and, as presented, have NOT undergone any form of quality control. These data are NOT guaranteed to be valid or correct.